Time;durP1;ratioP1;P1;durP2;ratioP2;P2;SDS_P1;SDS_P2;PMS_P1;PMS_P2;Temp;Humidity;BMP_temperature;BMP_pressure;BME280_temperature;BME280_humidity;BME280_pressure;Samples;Min_cycle;Max_cycle;Signal;HPM_P1;HPM_P2
2022/08/14 00:02:10;;;;;;;6.40;2.88;;;;;;;;;;5050277;28;20117;-39
2022/08/14 00:04:38;;;;;;;6.28;2.47;;;;;;;;;;5051724;28;20676;-39
2022/08/14 00:07:05;;;;;;;6.63;2.33;;;;;;;;;;5052000;28;20045;-38
2022/08/14 00:09:31;;;;;;;10.20;2.42;;;;;;;;;;5044260;28;20262;-38
2022/08/14 00:11:58;;;;;;;5.45;2.65;;;;;;;;;;5036893;28;20051;-41
2022/08/14 00:14:26;;;;;;;6.05;2.70;;;;;;;;;;5017420;28;20041;-38
2022/08/14 00:16:53;;;;;;;6.45;2.45;;;;;;;;;;5026527;28;20075;-40
2022/08/14 00:19:20;;;;;;;5.93;2.63;;;;;;;;;;5055335;28;20052;-39
2022/08/14 00:21:48;;;;;;;5.00;2.33;;;;;;;;;;5039383;28;20478;-40
2022/08/14 00:24:16;;;;;;;4.82;2.13;;;;;;;;;;5040744;28;20057;-40
2022/08/14 00:26:42;;;;;;;7.55;2.17;;;;;;;;;;5044120;28;20057;-39
2022/08/14 00:29:09;;;;;;;6.97;2.30;;;;;;;;;;5064799;28;20384;-40
2022/08/14 00:31:36;;;;;;;4.90;2.30;;;;;;;;;;5047596;28;20056;-40
2022/08/14 00:34:02;;;;;;;5.65;2.60;;;;;;;;;;5044656;28;20041;-40
2022/08/14 00:36:29;;;;;;;5.55;2.53;;;;;;;;;;5047906;28;20076;-38
2022/08/14 00:38:57;;;;;;;6.35;2.50;;;;;;;;;;5041998;28;20136;-40
2022/08/14 00:41:24;;;;;;;6.78;2.60;;;;;;;;;;5035762;28;20040;-39
2022/08/14 00:43:51;;;;;;;8.97;2.93;;;;;;;;;;5046455;28;20044;-40
2022/08/14 00:46:17;;;;;;;7.53;3.33;;;;;;;;;;5041233;28;20053;-38
2022/08/14 00:48:44;;;;;;;7.03;2.80;;;;;;;;;;5054665;28;20045;-39
2022/08/14 00:51:11;;;;;;;5.10;2.33;;;;;;;;;;5052053;28;20044;-38
2022/08/14 00:53:38;;;;;;;7.22;2.53;;;;;;;;;;5050052;28;20061;-40
2022/08/14 00:56:07;;;;;;;6.23;2.40;;;;;;;;;;5049900;28;20071;-42
2022/08/14 00:58:34;;;;;;;6.30;2.78;;;;;;;;;;5045451;28;20136;-39
2022/08/14 01:01:02;;;;;;;6.45;2.75;;;;;;;;;;5046566;28;20041;-40
2022/08/14 01:03:30;;;;;;;6.93;2.70;;;;;;;;;;5032055;28;20697;-39
2022/08/14 01:05:59;;;;;;;6.63;2.92;;;;;;;;;;5048023;28;20071;-40
2022/08/14 01:08:26;;;;;;;5.70;2.70;;;;;;;;;;5037575;28;20057;-38
2022/08/14 01:10:54;;;;;;;6.80;2.88;;;;;;;;;;5048047;28;20108;-41
2022/08/14 01:13:23;;;;;;;5.50;3.00;;;;;;;;;;5036000;28;20048;-40
2022/08/14 01:15:51;;;;;;;7.25;3.13;;;;;;;;;;5059617;28;20143;-38
2022/08/14 01:21:07;;;;;;;5.80;3.10;;;;;;;;;;5054644;28;20052;-39
2022/08/14 01:23:37;;;;;;;7.22;3.15;;;;;;;;;;5051334;28;20041;-39
2022/08/14 01:26:04;;;;;;;6.40;2.78;;;;;;;;;;5050935;28;20061;-40
2022/08/14 01:28:33;;;;;;;5.95;3.30;;;;;;;;;;5039534;28;20052;-40
2022/08/14 01:31:00;;;;;;;6.43;3.42;;;;;;;;;;5044985;28;20060;-40
2022/08/14 01:33:28;;;;;;;7.37;2.97;;;;;;;;;;5036226;28;20056;-39
2022/08/14 01:35:57;;;;;;;8.00;3.00;;;;;;;;;;5043133;28;20041;-40
2022/08/14 01:38:25;;;;;;;6.88;3.33;;;;;;;;;;5050479;28;20052;-39
2022/08/14 01:40:55;;;;;;;5.80;3.10;;;;;;;;;;5048542;28;20052;-40
2022/08/14 01:43:22;;;;;;;7.90;3.22;;;;;;;;;;5053119;28;20419;-38
2022/08/14 01:45:50;;;;;;;5.50;3.10;;;;;;;;;;5028066;28;20557;-39
2022/08/14 01:48:17;;;;;;;7.55;3.10;;;;;;;;;;5051563;28;20056;-39
2022/08/14 01:50:44;;;;;;;7.45;2.97;;;;;;;;;;5039485;28;20112;-39
2022/08/14 01:53:11;;;;;;;7.72;3.65;;;;;;;;;;5049732;28;20111;-39
2022/08/14 01:55:38;;;;;;;5.82;3.15;;;;;;;;;;5025853;28;20106;-39
2022/08/14 01:58:08;;;;;;;11.47;3.20;;;;;;;;;;5041433;28;20071;-38
2022/08/14 02:00:37;;;;;;;7.28;3.30;;;;;;;;;;5038728;28;20763;-39
2022/08/14 02:03:04;;;;;;;8.48;3.45;;;;;;;;;;5044292;28;20052;-38
2022/08/14 02:05:31;;;;;;;7.20;3.47;;;;;;;;;;5020155;28;20041;-38
2022/08/14 02:07:57;;;;;;;7.85;3.22;;;;;;;;;;5026140;28;20105;-40
2022/08/14 02:10:27;;;;;;;5.43;2.67;;;;;;;;;;5035192;28;20049;-40
2022/08/14 02:12:55;;;;;;;8.13;3.45;;;;;;;;;;5045740;28;20133;-39
2022/08/14 02:15:23;;;;;;;8.23;3.53;;;;;;;;;;5048967;28;20616;-40
2022/08/14 02:17:49;;;;;;;6.60;3.45;;;;;;;;;;5030277;28;20052;-37
2022/08/14 02:20:17;;;;;;;6.53;3.45;;;;;;;;;;5039494;28;20051;-40
2022/08/14 02:22:44;;;;;;;6.73;3.20;;;;;;;;;;5045021;28;20454;-39
2022/08/14 02:25:10;;;;;;;7.93;3.80;;;;;;;;;;5043468;28;20049;-42
2022/08/14 02:27:40;;;;;;;8.52;3.20;;;;;;;;;;5038181;28;20047;-40
2022/08/14 02:30:07;;;;;;;5.82;3.30;;;;;;;;;;5008859;28;20060;-39
2022/08/14 02:32:36;;;;;;;6.07;3.25;;;;;;;;;;5034859;28;20072;-39
2022/08/14 02:35:06;;;;;;;6.80;3.40;;;;;;;;;;5029180;28;20059;-39
2022/08/14 02:37:32;;;;;;;5.95;3.22;;;;;;;;;;5040205;28;20045;-40
2022/08/14 02:39:59;;;;;;;6.43;3.33;;;;;;;;;;5039973;28;20049;-39
2022/08/14 02:42:25;;;;;;;6.35;3.25;;;;;;;;;;5047144;28;20661;-39
2022/08/14 02:44:51;;;;;;;6.93;3.33;;;;;;;;;;5055916;28;20250;-39
2022/08/14 02:47:19;;;;;;;8.30;3.00;;;;;;;;;;5021564;28;20951;-39
2022/08/14 02:49:47;;;;;;;6.97;3.45;;;;;;;;;;5253446;22;20072;-40
2022/08/14 02:52:14;;;;;;;7.13;3.60;;;;;;;;;;4911571;28;20053;-39
2022/08/14 02:54:41;;;;;;;7.38;3.53;;;;;;;;;;4989296;28;20050;-42
2022/08/14 02:57:08;;;;;;;6.55;3.20;;;;;;;;;;5014086;28;20060;-41
2022/08/14 02:59:36;;;;;;;9.93;3.20;;;;;;;;;;4998270;28;20067;-41
2022/08/14 03:02:03;;;;;;;9.68;3.55;;;;;;;;;;5018181;28;20060;-40
2022/08/14 03:04:29;;;;;;;8.23;3.15;;;;;;;;;;5022407;28;20057;-42
2022/08/14 03:06:57;;;;;;;6.65;3.75;;;;;;;;;;5012392;28;20121;-41
2022/08/14 03:09:24;;;;;;;5.82;2.95;;;;;;;;;;5008082;28;20054;-40
2022/08/14 03:11:52;;;;;;;6.83;3.27;;;;;;;;;;5010410;28;20564;-40
2022/08/14 03:14:20;;;;;;;6.97;3.40;;;;;;;;;;5015196;28;20131;-39
2022/08/14 03:16:48;;;;;;;6.28;3.20;;;;;;;;;;5003967;28;20049;-40
2022/08/14 03:19:14;;;;;;;6.57;3.00;;;;;;;;;;5012462;28;20049;-41
2022/08/14 03:21:41;;;;;;;7.57;3.17;;;;;;;;;;5018692;28;20084;-41
2022/08/14 03:24:11;;;;;;;6.50;3.40;;;;;;;;;;5022431;28;20070;-40
2022/08/14 03:26:39;;;;;;;7.07;3.40;;;;;;;;;;5010200;28;20172;-41
2022/08/14 03:29:06;;;;;;;6.82;3.20;;;;;;;;;;5004738;28;20070;-40
2022/08/14 03:31:33;;;;;;;7.72;3.55;;;;;;;;;;5019987;28;20060;-39
2022/08/14 03:33:59;;;;;;;7.78;3.25;;;;;;;;;;5008489;28;20076;-38
2022/08/14 03:36:26;;;;;;;8.27;2.73;;;;;;;;;;5017076;28;20049;-41
2022/08/14 03:38:56;;;;;;;7.22;3.00;;;;;;;;;;5010434;28;20117;-38
2022/08/14 03:41:25;;;;;;;5.82;3.42;;;;;;;;;;5023779;28;20065;-39
2022/08/14 03:43:53;;;;;;;9.40;4.00;;;;;;;;;;5015956;28;20563;-38
2022/08/14 03:46:20;;;;;;;6.13;3.50;;;;;;;;;;5019830;28;20049;-38
2022/08/14 03:48:47;;;;;;;5.87;3.40;;;;;;;;;;5012597;28;20059;-39
2022/08/14 03:51:14;;;;;;;7.30;3.53;;;;;;;;;;4992964;28;20621;-45
2022/08/14 03:53:42;;;;;;;6.47;3.25;;;;;;;;;;5018707;28;20046;-40
2022/08/14 03:56:12;;;;;;;5.78;3.38;;;;;;;;;;5025279;28;20467;-40
2022/08/14 03:58:40;;;;;;;6.78;3.70;;;;;;;;;;5015991;28;20054;-39
2022/08/14 04:01:07;;;;;;;5.97;3.70;;;;;;;;;;5012570;28;20098;-39
2022/08/14 04:03:34;;;;;;;7.18;3.75;;;;;;;;;;5028762;28;20065;-41
2022/08/14 04:06:01;;;;;;;8.15;3.85;;;;;;;;;;5017756;28;20069;-40
2022/08/14 04:08:28;;;;;;;7.18;3.63;;;;;;;;;;5016222;28;20666;-40
2022/08/14 04:10:55;;;;;;;7.30;3.67;;;;;;;;;;5017190;28;20049;-41
2022/08/14 04:13:21;;;;;;;9.70;3.97;;;;;;;;;;5003758;28;20119;-39
2022/08/14 04:15:49;;;;;;;7.18;3.45;;;;;;;;;;5019753;28;20056;-40
2022/08/14 04:18:15;;;;;;;9.02;3.60;;;;;;;;;;5022123;28;20045;-39
2022/08/14 04:20:42;;;;;;;8.98;3.70;;;;;;;;;;5016499;28;20053;-40
2022/08/14 04:23:09;;;;;;;7.40;3.95;;;;;;;;;;5029718;28;20103;-40
2022/08/14 04:25:36;;;;;;;7.47;3.53;;;;;;;;;;5015650;28;20061;-41
2022/08/14 04:28:04;;;;;;;7.55;3.95;;;;;;;;;;5022915;28;20061;-40
2022/08/14 04:30:30;;;;;;;6.43;3.10;;;;;;;;;;5011923;28;20573;-39
2022/08/14 04:32:58;;;;;;;5.43;2.97;;;;;;;;;;4997039;28;20464;-39
2022/08/14 04:35:25;;;;;;;6.50;3.30;;;;;;;;;;5018663;28;20534;-39
2022/08/14 04:43:38;;;;;;;7.28;3.58;;;;;;;;;;5009945;28;20045;-40
2022/08/14 04:46:06;;;;;;;8.00;3.47;;;;;;;;;;5022708;28;20105;-38
2022/08/14 04:48:34;;;;;;;6.07;3.47;;;;;;;;;;5013216;28;20045;-39
2022/08/14 04:51:00;;;;;;;7.17;3.40;;;;;;;;;;4996182;28;20051;-39
2022/08/14 04:53:30;;;;;;;6.80;3.50;;;;;;;;;;4978883;28;20097;-40
2022/08/14 04:55:57;;;;;;;6.78;3.80;;;;;;;;;;4981784;28;20066;-40
2022/08/14 04:58:25;;;;;;;7.63;3.90;;;;;;;;;;4979544;28;20582;-38
2022/08/14 05:00:52;;;;;;;6.47;3.63;;;;;;;;;;4980230;28;20055;-38
2022/08/14 05:03:20;;;;;;;7.23;3.50;;;;;;;;;;4971673;28;20062;-38
2022/08/14 05:05:48;;;;;;;8.43;4.20;;;;;;;;;;4983081;28;20113;-39
2022/08/14 05:08:15;;;;;;;7.10;3.60;;;;;;;;;;4979212;28;20889;-38
2022/08/14 05:10:43;;;;;;;7.47;4.03;;;;;;;;;;4981995;28;20061;-39
2022/08/14 05:13:10;;;;;;;10.00;4.18;;;;;;;;;;4978355;28;20113;-41
2022/08/14 05:15:38;;;;;;;7.53;3.87;;;;;;;;;;4983893;28;20071;-38
2022/08/14 05:18:12;;;;;;;7.35;4.22;;;;;;;;;;4974257;28;20105;-38
2022/08/14 05:20:39;;;;;;;8.95;4.38;;;;;;;;;;4973702;28;20057;-38
2022/08/14 05:23:07;;;;;;;9.82;4.45;;;;;;;;;;4975250;28;20141;-39
2022/08/14 05:25:34;;;;;;;8.23;3.95;;;;;;;;;;4988316;28;20054;-46
2022/08/14 05:28:06;;;;;;;8.97;3.67;;;;;;;;;;4961574;28;20563;-39
2022/08/14 05:30:32;;;;;;;10.35;4.75;;;;;;;;;;4987548;28;20047;-39
2022/08/14 05:33:00;;;;;;;9.48;4.13;;;;;;;;;;4975093;28;20078;-40
2022/08/14 05:35:26;;;;;;;10.50;4.30;;;;;;;;;;4976424;28;20113;-39
2022/08/14 05:37:53;;;;;;;7.60;4.32;;;;;;;;;;4978979;28;20042;-40
2022/08/14 05:40:21;;;;;;;7.93;4.07;;;;;;;;;;4988198;28;20486;-39
2022/08/14 05:42:47;;;;;;;7.55;4.15;;;;;;;;;;4972486;28;20046;-39
2022/08/14 05:45:16;;;;;;;8.10;3.85;;;;;;;;;;4986266;28;20089;-44
2022/08/14 05:47:42;;;;;;;7.57;3.95;;;;;;;;;;4972635;28;20050;-39
2022/08/14 05:50:10;;;;;;;6.82;3.90;;;;;;;;;;4995567;28;20130;-40
2022/08/14 05:52:37;;;;;;;7.00;4.27;;;;;;;;;;5006640;28;20503;-39
2022/08/14 05:55:04;;;;;;;7.60;3.63;;;;;;;;;;5018264;28;20052;-40
2022/08/14 05:57:32;;;;;;;7.25;3.33;;;;;;;;;;5002354;28;20068;-39
2022/08/14 05:59:58;;;;;;;6.32;3.63;;;;;;;;;;5005807;28;20136;-40
2022/08/14 06:02:25;;;;;;;8.35;3.72;;;;;;;;;;5015078;28;20050;-41
2022/08/14 06:04:51;;;;;;;8.70;4.07;;;;;;;;;;5019039;28;20041;-38
2022/08/14 06:07:18;;;;;;;8.68;3.97;;;;;;;;;;5027669;28;20088;-40
2022/08/14 06:09:44;;;;;;;7.75;3.80;;;;;;;;;;5010151;28;20100;-41
2022/08/14 06:12:11;;;;;;;8.52;4.05;;;;;;;;;;5024255;28;20057;-39
2022/08/14 06:14:40;;;;;;;8.02;4.05;;;;;;;;;;5011273;28;20076;-39
2022/08/14 06:17:07;;;;;;;6.73;3.53;;;;;;;;;;5017690;28;20057;-40
2022/08/14 06:19:33;;;;;;;8.60;3.90;;;;;;;;;;5014176;28;20057;-40
2022/08/14 06:22:00;;;;;;;7.10;3.40;;;;;;;;;;5021039;28;20115;-39
2022/08/14 06:24:26;;;;;;;9.18;4.05;;;;;;;;;;5007152;28;20046;-39
2022/08/14 06:26:53;;;;;;;7.43;4.03;;;;;;;;;;5021648;28;20064;-40
2022/08/14 06:29:20;;;;;;;8.87;3.83;;;;;;;;;;5010617;28;20084;-38
2022/08/14 06:31:48;;;;;;;9.02;3.60;;;;;;;;;;5026041;28;20404;-40
2022/08/14 06:34:15;;;;;;;7.95;3.92;;;;;;;;;;4997856;28;20084;-40
2022/08/14 06:36:42;;;;;;;8.80;3.33;;;;;;;;;;4998080;28;20053;-41
2022/08/14 06:39:08;;;;;;;6.93;3.50;;;;;;;;;;5012129;28;20061;-38
2022/08/14 06:41:35;;;;;;;8.47;3.47;;;;;;;;;;5015309;28;20113;-39
2022/08/14 06:44:01;;;;;;;7.80;3.72;;;;;;;;;;5018443;28;20072;-39
2022/08/14 06:46:29;;;;;;;6.50;3.22;;;;;;;;;;5018919;28;20050;-38
2022/08/14 06:48:57;;;;;;;6.95;3.70;;;;;;;;;;5019813;28;20060;-40
2022/08/14 06:51:24;;;;;;;8.15;3.90;;;;;;;;;;5017769;28;20165;-41
2022/08/14 06:53:50;;;;;;;9.07;3.73;;;;;;;;;;5019451;28;20621;-39
2022/08/14 06:56:17;;;;;;;7.63;3.72;;;;;;;;;;5021889;28;20054;-39
2022/08/14 06:58:44;;;;;;;7.63;3.83;;;;;;;;;;5016665;28;20492;-40
2022/08/14 07:06:42;;;;;;;8.23;3.90;;;;;;;;;;4992400;28;20780;-41
2022/08/14 07:09:11;;;;;;;8.02;3.28;;;;;;;;;;5022311;28;20076;-40
2022/08/14 07:11:37;;;;;;;6.75;3.30;;;;;;;;;;5021536;28;20046;-39
2022/08/14 07:14:04;;;;;;;9.57;3.40;;;;;;;;;;5013126;28;20057;-39
2022/08/14 07:16:30;;;;;;;7.88;3.88;;;;;;;;;;5021356;28;20046;-39
2022/08/14 07:18:58;;;;;;;8.93;3.53;;;;;;;;;;5018756;28;20049;-39
2022/08/14 07:21:25;;;;;;;10.05;3.50;;;;;;;;;;5017401;28;20581;-39
2022/08/14 07:23:51;;;;;;;8.05;3.80;;;;;;;;;;5009642;28;20084;-39
2022/08/14 07:26:18;;;;;;;8.43;3.95;;;;;;;;;;5024670;28;20107;-38
2022/08/14 07:28:44;;;;;;;8.20;3.60;;;;;;;;;;5012052;28;20054;-39
2022/08/14 07:31:11;;;;;;;17.93;3.53;;;;;;;;;;5024776;28;20045;-37
2022/08/14 07:33:39;;;;;;;7.15;3.40;;;;;;;;;;5014892;28;20511;-40
2022/08/14 07:36:09;;;;;;;6.68;3.38;;;;;;;;;;5008027;28;20418;-39
2022/08/14 07:38:36;;;;;;;7.55;3.83;;;;;;;;;;4991048;28;20212;-41
2022/08/14 07:41:04;;;;;;;6.85;3.08;;;;;;;;;;4988779;28;20644;-38
2022/08/14 07:43:31;;;;;;;7.63;3.50;;;;;;;;;;5002670;28;20111;-41
2022/08/14 07:45:58;;;;;;;8.63;3.28;;;;;;;;;;5003057;28;20061;-40
2022/08/14 07:48:24;;;;;;;9.45;3.42;;;;;;;;;;5006180;28;20045;-39
2022/08/14 07:50:51;;;;;;;7.22;3.00;;;;;;;;;;5005923;28;20638;-39
2022/08/14 07:53:20;;;;;;;8.20;3.53;;;;;;;;;;4981159;28;20152;-39
2022/08/14 07:55:47;;;;;;;7.63;3.43;;;;;;;;;;5011308;28;20591;-40
2022/08/14 07:58:16;;;;;;;7.82;3.45;;;;;;;;;;5012381;28;20054;-39
2022/08/14 08:00:43;;;;;;;5.90;2.97;;;;;;;;;;4995046;28;20080;-40
2022/08/14 08:03:10;;;;;;;8.23;3.35;;;;;;;;;;5011050;28;20053;-40
2022/08/14 08:05:36;;;;;;;6.95;3.33;;;;;;;;;;5012713;28;20084;-40
2022/08/14 08:08:03;;;;;;;9.23;3.50;;;;;;;;;;5004137;28;20072;-39
2022/08/14 08:10:31;;;;;;;9.18;3.92;;;;;;;;;;5005906;28;20045;-39
2022/08/14 08:12:59;;;;;;;8.27;3.40;;;;;;;;;;5017152;28;20034;-39
2022/08/14 08:15:25;;;;;;;8.25;3.50;;;;;;;;;;5017508;28;20049;-40
2022/08/14 08:17:52;;;;;;;6.35;3.65;;;;;;;;;;5018418;28;20248;-39
2022/08/14 08:20:19;;;;;;;7.27;3.53;;;;;;;;;;5014816;28;20084;-40
2022/08/14 08:22:46;;;;;;;6.95;3.35;;;;;;;;;;5026355;28;20501;-39
2022/08/14 08:25:13;;;;;;;9.65;4.20;;;;;;;;;;5019849;28;20053;-39
2022/08/14 08:27:42;;;;;;;6.53;3.10;;;;;;;;;;5024502;28;20074;-41
2022/08/14 08:30:10;;;;;;;5.65;3.10;;;;;;;;;;5014712;28;20095;-39
2022/08/14 08:32:40;;;;;;;6.00;3.10;;;;;;;;;;5019332;28;20053;-39
2022/08/14 08:35:10;;;;;;;8.75;3.45;;;;;;;;;;5011929;28;20109;-40
2022/08/14 08:37:36;;;;;;;7.93;2.97;;;;;;;;;;5023750;28;20086;-42
2022/08/14 08:40:03;;;;;;;7.13;3.03;;;;;;;;;;5022628;28;20060;-38
2022/08/14 08:42:29;;;;;;;7.82;3.10;;;;;;;;;;5013017;28;20041;-40
2022/08/14 08:44:57;;;;;;;7.53;3.07;;;;;;;;;;5025708;28;20507;-39
2022/08/14 08:47:24;;;;;;;5.70;2.65;;;;;;;;;;4322033;28;10021492;-39
2022/08/14 08:49:52;;;;;;;6.87;2.93;;;;;;;;;;5010494;28;20311;-40
2022/08/14 08:52:20;;;;;;;6.32;2.50;;;;;;;;;;5013654;28;20057;-40
2022/08/14 08:54:53;;;;;;;5.97;2.65;;;;;;;;;;5000837;28;20046;-39
2022/08/14 08:57:19;;;;;;;5.53;3.40;;;;;;;;;;5014396;28;20100;-38
2022/08/14 08:59:46;;;;;;;8.10;3.28;;;;;;;;;;5004608;28;20058;-40
2022/08/14 09:02:17;;;;;;;7.07;2.80;;;;;;;;;;5022174;28;20049;-39
2022/08/14 09:04:44;;;;;;;5.65;2.85;;;;;;;;;;4990588;28;20466;-39
2022/08/14 09:07:10;;;;;;;7.07;3.10;;;;;;;;;;5017285;28;20103;-40
2022/08/14 09:09:50;;;;;;;5.28;2.92;;;;;;;;;;4669179;28;10000712;-41
2022/08/14 09:12:17;;;;;;;6.00;2.85;;;;;;;;;;5018784;28;20053;-41
2022/08/14 09:14:46;;;;;;;5.67;2.60;;;;;;;;;;5014948;28;20402;-41
2022/08/14 09:17:14;;;;;;;6.15;2.97;;;;;;;;;;5020277;28;20053;-40
2022/08/14 09:19:41;;;;;;;6.88;2.63;;;;;;;;;;5013344;28;20041;-39
2022/08/14 09:22:09;;;;;;;6.38;2.88;;;;;;;;;;5021570;28;20068;-40
2022/08/14 09:24:36;;;;;;;4.97;2.67;;;;;;;;;;5019430;28;20173;-41
2022/08/14 09:27:03;;;;;;;9.40;2.70;;;;;;;;;;5018846;28;20053;-40
2022/08/14 09:29:29;;;;;;;7.10;3.00;;;;;;;;;;5014833;28;20069;-39
2022/08/14 09:31:57;;;;;;;8.52;2.85;;;;;;;;;;5017922;28;20045;-40
2022/08/14 09:34:36;;;;;;;7.10;2.75;;;;;;;;;;5008115;28;20083;-43
2022/08/14 09:37:11;;;;;;;8.05;2.55;;;;;;;;;;5022644;28;20045;-41
2022/08/14 09:39:44;;;;;;;5.00;2.60;;;;;;;;;;5010886;28;20101;-41
2022/08/14 09:42:32;;;;;;;6.63;2.42;;;;;;;;;;5007921;28;20045;-43
2022/08/14 09:45:05;;;;;;;7.22;2.70;;;;;;;;;;5016708;28;20045;-40
2022/08/14 09:47:42;;;;;;;9.32;3.20;;;;;;;;;;5016974;28;20721;-41
2022/08/14 09:50:16;;;;;;;8.80;2.55;;;;;;;;;;5013933;28;20290;-41
2022/08/14 09:52:48;;;;;;;4.77;2.67;;;;;;;;;;5004691;28;20068;-40
2022/08/14 09:55:18;;;;;;;5.78;2.60;;;;;;;;;;5025323;28;20112;-39
2022/08/14 09:57:45;;;;;;;6.50;2.70;;;;;;;;;;5020401;28;20045;-39
2022/08/14 10:00:13;;;;;;;5.45;2.25;;;;;;;;;;5008277;28;20049;-38
2022/08/14 10:02:50;;;;;;;5.35;2.45;;;;;;;;;;5006753;28;20399;-40
2022/08/14 10:05:28;;;;;;;4.97;2.37;;;;;;;;;;5017074;28;20050;-39
2022/08/14 10:07:54;;;;;;;5.43;2.30;;;;;;;;;;5019350;28;20100;-45
2022/08/14 10:10:27;;;;;;;7.30;2.30;;;;;;;;;;5015538;28;20069;-39
2022/08/14 10:12:54;;;;;;;4.80;1.90;;;;;;;;;;5019991;28;20064;-40
2022/08/14 10:15:25;;;;;;;4.53;2.20;;;;;;;;;;5020360;28;20056;-40
2022/08/14 10:18:03;;;;;;;4.47;2.10;;;;;;;;;;5005992;28;20045;-38
2022/08/14 10:20:33;;;;;;;4.60;2.10;;;;;;;;;;5007469;28;20048;-39
2022/08/14 10:23:08;;;;;;;6.63;2.53;;;;;;;;;;5015495;28;20045;-39
2022/08/14 10:25:39;;;;;;;6.07;2.40;;;;;;;;;;5004664;28;20076;-40
2022/08/14 10:28:06;;;;;;;5.07;2.30;;;;;;;;;;5019864;28;20073;-40
2022/08/14 10:30:33;;;;;;;4.80;2.50;;;;;;;;;;5017895;28;20050;-39
2022/08/14 10:33:01;;;;;;;5.68;2.10;;;;;;;;;;4992445;28;20059;-41
2022/08/14 10:35:27;;;;;;;5.28;2.67;;;;;;;;;;5006970;28;20041;-40
2022/08/14 10:38:00;;;;;;;6.10;2.38;;;;;;;;;;5011500;28;20076;-39
2022/08/14 10:40:28;;;;;;;5.22;2.25;;;;;;;;;;5021237;28;20525;-39
2022/08/14 10:42:55;;;;;;;5.50;2.30;;;;;;;;;;5013035;28;20076;-44
2022/08/14 10:45:23;;;;;;;7.38;2.67;;;;;;;;;;5022831;28;20049;-40
2022/08/14 10:47:51;;;;;;;5.22;1.90;;;;;;;;;;5019730;28;20053;-40
2022/08/14 10:50:28;;;;;;;4.57;2.15;;;;;;;;;;5018817;28;20056;-40
2022/08/14 10:52:58;;;;;;;4.38;2.08;;;;;;;;;;5020203;28;20128;-43
2022/08/14 10:55:31;;;;;;;5.93;2.57;;;;;;;;;;5008849;28;20048;-42
2022/08/14 10:57:57;;;;;;;4.90;2.17;;;;;;;;;;5020792;28;20049;-39
2022/08/14 11:00:25;;;;;;;5.47;2.40;;;;;;;;;;4999006;28;20332;-41
2022/08/14 11:02:57;;;;;;;5.95;2.50;;;;;;;;;;4997896;28;20592;-40
2022/08/14 11:05:26;;;;;;;4.72;2.10;;;;;;;;;;5016414;28;20414;-39
2022/08/14 11:07:57;;;;;;;5.33;2.60;;;;;;;;;;5010830;28;20072;-39
2022/08/14 11:10:27;;;;;;;4.75;2.02;;;;;;;;;;4670242;28;10001305;-41
2022/08/14 11:12:55;;;;;;;5.63;2.25;;;;;;;;;;5008787;28;20483;-40
2022/08/14 11:15:23;;;;;;;5.20;2.22;;;;;;;;;;5023102;28;20141;-39
2022/08/14 11:17:50;;;;;;;4.25;2.03;;;;;;;;;;5013928;28;20076;-39
2022/08/14 11:20:17;;;;;;;5.80;2.10;;;;;;;;;;5030748;28;20057;-41
2022/08/14 11:22:44;;;;;;;4.40;2.03;;;;;;;;;;5008086;28;20129;-41
2022/08/14 11:25:12;;;;;;;4.88;2.00;;;;;;;;;;5002134;28;20045;-39
2022/08/14 11:27:42;;;;;;;5.25;2.00;;;;;;;;;;5009321;28;20051;-39
2022/08/14 11:30:10;;;;;;;7.32;2.35;;;;;;;;;;4999964;28;20049;-39
2022/08/14 11:32:38;;;;;;;4.27;1.97;;;;;;;;;;5010469;28;20041;-41
2022/08/14 11:35:05;;;;;;;6.25;2.35;;;;;;;;;;5007057;28;20144;-41
2022/08/14 11:37:33;;;;;;;5.40;2.50;;;;;;;;;;5007083;28;20045;-40
2022/08/14 11:40:00;;;;;;;5.35;2.08;;;;;;;;;;5010307;28;20080;-41
2022/08/14 11:42:27;;;;;;;4.88;1.98;;;;;;;;;;5014505;28;20097;-40
2022/08/14 11:44:56;;;;;;;5.57;2.20;;;;;;;;;;5021577;28;20444;-43
2022/08/14 11:47:23;;;;;;;5.57;2.17;;;;;;;;;;5018044;28;20076;-39
2022/08/14 11:49:52;;;;;;;7.22;1.58;;;;;;;;;;5020998;28;20050;-41
2022/08/14 11:52:22;;;;;;;4.95;1.55;;;;;;;;;;5017402;28;20430;-42
2022/08/14 11:54:59;;;;;;;5.22;2.35;;;;;;;;;;5014004;28;20055;-39
2022/08/14 11:57:26;;;;;;;3.90;1.50;;;;;;;;;;5021477;28;20084;-42
2022/08/14 12:00:03;;;;;;;3.58;1.48;;;;;;;;;;5011261;28;20049;-41
2022/08/14 12:02:30;;;;;;;4.53;1.92;;;;;;;;;;5019617;28;20058;-40
2022/08/14 12:04:56;;;;;;;4.78;1.90;;;;;;;;;;4998951;28;20088;-39
2022/08/14 12:07:23;;;;;;;4.47;2.28;;;;;;;;;;5018002;28;20156;-40
2022/08/14 12:09:53;;;;;;;5.20;1.83;;;;;;;;;;5011133;28;20063;-40
2022/08/14 12:12:20;;;;;;;7.00;2.63;;;;;;;;;;5013926;28;20054;-41
2022/08/14 12:14:52;;;;;;;4.25;1.90;;;;;;;;;;5003199;28;20657;-41
2022/08/14 12:17:21;;;;;;;4.93;2.22;;;;;;;;;;5016091;28;20069;-39
2022/08/14 12:19:48;;;;;;;5.38;2.10;;;;;;;;;;5014271;28;20068;-42
2022/08/14 12:22:17;;;;;;;6.97;2.13;;;;;;;;;;5013560;28;20072;-40
2022/08/14 12:24:44;;;;;;;4.80;2.20;;;;;;;;;;4662158;28;9999964;-40
2022/08/14 12:27:11;;;;;;;10.98;2.10;;;;;;;;;;5015974;28;20061;-42
2022/08/14 12:29:41;;;;;;;5.22;2.80;;;;;;;;;;5001939;28;20041;-41
2022/08/14 12:32:08;;;;;;;5.10;2.30;;;;;;;;;;5001315;28;20057;-41
2022/08/14 12:34:36;;;;;;;6.35;1.92;;;;;;;;;;5007980;28;20045;-45
2022/08/14 12:37:07;;;;;;;4.55;1.48;;;;;;;;;;5022238;28;20068;-42
2022/08/14 12:39:34;;;;;;;4.30;1.88;;;;;;;;;;5008675;28;20057;-41
2022/08/14 12:42:05;;;;;;;3.80;1.52;;;;;;;;;;5016618;28;20045;-39
2022/08/14 12:44:33;;;;;;;6.93;2.00;;;;;;;;;;5001190;28;20046;-39
2022/08/14 12:47:04;;;;;;;4.32;1.77;;;;;;;;;;5006933;28;20061;-40
2022/08/14 12:49:31;;;;;;;5.43;2.42;;;;;;;;;;5009160;28;20686;-40
2022/08/14 12:51:59;;;;;;;3.95;1.88;;;;;;;;;;4976755;28;20049;-39
2022/08/14 12:54:29;;;;;;;4.13;2.20;;;;;;;;;;4770724;28;10001225;-42
2022/08/14 12:57:03;;;;;;;4.82;2.20;;;;;;;;;;5005065;28;20269;-41
2022/08/14 12:59:31;;;;;;;4.75;2.55;;;;;;;;;;5011316;28;20041;-40
2022/08/14 13:01:58;;;;;;;4.63;1.80;;;;;;;;;;5021719;28;20072;-40
2022/08/14 13:04:30;;;;;;;7.55;1.98;;;;;;;;;;5014749;28;20076;-40
2022/08/14 13:07:00;;;;;;;6.40;2.13;;;;;;;;;;5014870;28;20050;-40
2022/08/14 13:09:29;;;;;;;4.43;2.03;;;;;;;;;;5021038;28;20057;-40
2022/08/14 13:11:56;;;;;;;5.18;2.20;;;;;;;;;;5018066;28;20072;-40
2022/08/14 13:14:24;;;;;;;5.30;2.28;;;;;;;;;;5001157;28;20061;-42
2022/08/14 13:16:52;;;;;;;5.68;2.20;;;;;;;;;;5012792;28;20057;-41
2022/08/14 13:19:20;;;;;;;7.67;2.17;;;;;;;;;;4998495;28;20080;-40
2022/08/14 13:21:48;;;;;;;6.18;2.15;;;;;;;;;;5006629;28;20049;-40
2022/08/14 13:24:15;;;;;;;4.00;2.10;;;;;;;;;;5003585;28;20076;-44
2022/08/14 13:26:44;;;;;;;4.78;2.20;;;;;;;;;;5018578;28;20045;-40
2022/08/14 13:29:11;;;;;;;9.80;2.50;;;;;;;;;;4993366;28;20095;-41
2022/08/14 13:31:39;;;;;;;3.97;2.00;;;;;;;;;;5013991;28;20045;-41
2022/08/14 13:34:06;;;;;;;3.83;2.10;;;;;;;;;;5016194;28;20046;-40
2022/08/14 13:36:33;;;;;;;4.25;2.25;;;;;;;;;;5016276;28;20049;-40
2022/08/14 13:39:00;;;;;;;3.97;1.80;;;;;;;;;;5014447;28;20046;-43
2022/08/14 13:41:27;;;;;;;5.72;2.40;;;;;;;;;;4999617;28;20238;-42
2022/08/14 13:43:56;;;;;;;6.13;2.43;;;;;;;;;;5019070;28;20068;-42
2022/08/14 13:46:22;;;;;;;4.78;2.17;;;;;;;;;;5007837;28;20129;-40
2022/08/14 13:48:50;;;;;;;5.70;2.00;;;;;;;;;;5019643;28;20049;-42
2022/08/14 13:51:17;;;;;;;5.50;2.42;;;;;;;;;;5010846;28;20056;-41
2022/08/14 13:53:45;;;;;;;5.38;2.28;;;;;;;;;;5017443;28;20459;-43
2022/08/14 13:56:13;;;;;;;5.17;2.80;;;;;;;;;;5016529;28;20076;-40
2022/08/14 13:58:42;;;;;;;4.75;2.60;;;;;;;;;;5018948;28;20052;-40
2022/08/14 14:01:10;;;;;;;5.20;2.22;;;;;;;;;;5002289;28;20495;-41
2022/08/14 14:03:39;;;;;;;4.43;2.30;;;;;;;;;;5011761;28;20123;-41
2022/08/14 14:06:07;;;;;;;4.18;2.00;;;;;;;;;;5005888;28;20053;-40
2022/08/14 14:08:35;;;;;;;5.20;2.03;;;;;;;;;;5007450;28;20054;-41
2022/08/14 14:11:02;;;;;;;5.22;2.42;;;;;;;;;;5005621;28;20053;-41
2022/08/14 14:13:37;;;;;;;5.85;2.38;;;;;;;;;;5003227;28;20046;-40
2022/08/14 14:16:04;;;;;;;4.72;2.22;;;;;;;;;;5006342;28;21548;-42
2022/08/14 14:18:33;;;;;;;4.90;2.42;;;;;;;;;;5006361;28;20243;-40
2022/08/14 14:20:59;;;;;;;6.23;2.30;;;;;;;;;;4991432;28;20442;-42
2022/08/14 14:23:26;;;;;;;5.20;2.00;;;;;;;;;;5014666;28;20045;-41
2022/08/14 14:25:53;;;;;;;4.07;2.00;;;;;;;;;;5000758;28;20049;-45
2022/08/14 14:28:20;;;;;;;5.35;2.13;;;;;;;;;;5013270;28;20045;-40
2022/08/14 14:30:47;;;;;;;4.68;2.50;;;;;;;;;;5001251;28;20053;-43
2022/08/14 14:33:14;;;;;;;5.20;2.10;;;;;;;;;;5012999;28;20053;-42
2022/08/14 14:35:43;;;;;;;6.32;2.33;;;;;;;;;;5005066;28;20075;-42
2022/08/14 14:38:13;;;;;;;5.28;2.20;;;;;;;;;;5012726;28;20109;-41
2022/08/14 14:40:40;;;;;;;4.30;2.40;;;;;;;;;;4984464;28;20109;-41
2022/08/14 14:43:11;;;;;;;5.03;2.40;;;;;;;;;;4999546;28;20088;-42
2022/08/14 14:45:39;;;;;;;6.27;2.20;;;;;;;;;;4989942;28;20053;-41
2022/08/14 14:48:07;;;;;;;4.20;2.22;;;;;;;;;;4993192;28;20050;-42
2022/08/14 14:50:37;;;;;;;5.28;2.50;;;;;;;;;;5003693;28;20467;-41
2022/08/14 14:53:05;;;;;;;4.35;1.92;;;;;;;;;;4986464;28;20058;-41
2022/08/14 14:55:31;;;;;;;8.02;3.67;;;;;;;;;;4321794;28;10020743;-43
2022/08/14 14:57:58;;;;;;;6.22;2.30;;;;;;;;;;5007508;28;20049;-41
2022/08/14 15:00:25;;;;;;;4.97;2.45;;;;;;;;;;5005330;28;20049;-40
2022/08/14 15:02:56;;;;;;;4.90;1.90;;;;;;;;;;5010280;28;20076;-40